Time;durP1;ratioP1;P1;durP2;ratioP2;P2;SDS_P1;SDS_P2;PMS_P1;PMS_P2;Temp;Humidity;BMP_temperature;BMP_pressure;BME280_temperature;BME280_humidity;BME280_pressure;Samples;Min_cycle;Max_cycle;Signal;HPM_P1;HPM_P2
2022/05/07 00:02:14;;;;;;;8.10;5.60;;;11.50;84.40;;;;;;5077232;28;20032;-72
2022/05/07 00:04:39;;;;;;;13.20;5.75;;;11.40;85.10;;;;;;5090026;28;20077;-72
2022/05/07 00:07:05;;;;;;;9.25;5.72;;;11.40;85.60;;;;;;5091060;28;20024;-72
2022/05/07 00:09:32;;;;;;;9.05;5.85;;;11.20;85.40;;;;;;5070510;28;20474;-72
2022/05/07 00:11:58;;;;;;;7.05;5.60;;;11.20;85.40;;;;;;5087885;28;20032;-72
2022/05/07 00:14:23;;;;;;;9.57;5.40;;;11.10;86.10;;;;;;5082610;28;20031;-72
2022/05/07 00:19:34;;;;;;;9.65;5.78;;;11.00;85.60;;;;;;5088841;28;20027;-72
2022/05/07 00:22:00;;;;;;;9.05;5.95;;;11.00;86.10;;;;;;5103458;28;20020;-72
2022/05/07 00:24:26;;;;;;;6.72;5.13;;;10.90;86.20;;;;;;5091980;28;20032;-73
2022/05/07 00:26:51;;;;;;;7.85;5.45;;;10.90;86.00;;;;;;5072262;28;20066;-73
2022/05/07 00:29:17;;;;;;;9.95;6.35;;;10.80;85.60;;;;;;5086794;28;20028;-73
2022/05/07 00:31:43;;;;;;;11.13;6.57;;;10.80;85.60;;;;;;5088074;28;20048;-73
2022/05/07 00:34:08;;;;;;;8.20;6.03;;;10.80;86.20;;;;;;5085535;28;20039;-73
2022/05/07 00:36:34;;;;;;;7.60;5.95;;;10.70;86.30;;;;;;5087592;28;20055;-73
2022/05/07 00:38:59;;;;;;;11.30;6.32;;;10.60;86.40;;;;;;5085615;28;20073;-73
2022/05/07 00:41:25;;;;;;;10.98;6.78;;;10.60;86.30;;;;;;5097710;28;20051;-73
2022/05/07 00:43:50;;;;;;;9.95;6.80;;;10.50;86.70;;;;;;5079344;28;20078;-73
2022/05/07 00:46:16;;;;;;;8.57;6.60;;;10.50;87.10;;;;;;5086364;28;20046;-73
2022/05/07 00:48:43;;;;;;;12.10;7.07;;;10.50;87.40;;;;;;5070149;28;20359;-73
2022/05/07 00:53:54;;;;;;;10.50;7.38;;;10.60;87.50;;;;;;5088598;28;20473;-73
2022/05/07 00:56:19;;;;;;;9.73;6.53;;;10.50;87.20;;;;;;5086008;28;20020;-73
2022/05/07 00:58:45;;;;;;;9.57;7.43;;;10.60;87.50;;;;;;5087943;28;20028;-73
2022/05/07 01:01:11;;;;;;;10.80;7.63;;;10.60;87.30;;;;;;5088325;28;20032;-73
2022/05/07 01:03:38;;;;;;;10.68;7.78;;;10.60;86.70;;;;;;5087505;28;20434;-73
2022/05/07 01:06:04;;;;;;;11.18;7.50;;;10.60;87.00;;;;;;5086861;28;20044;-73
2022/05/07 01:08:33;;;;;;;12.70;7.60;;;10.70;87.20;;;;;;5087141;28;20016;-73
2022/05/07 01:11:00;;;;;;;10.80;8.13;;;10.70;86.70;;;;;;5088088;28;20525;-73
2022/05/07 01:13:27;;;;;;;11.98;7.72;;;10.70;86.80;;;;;;5088130;28;20383;-73
2022/05/07 01:15:57;;;;;;;11.48;7.70;;;10.70;87.70;;;;;;5084862;28;20031;-73
2022/05/07 01:18:23;;;;;;;11.00;7.80;;;10.80;87.70;;;;;;5089387;28;20031;-73
2022/05/07 01:20:48;;;;;;;12.30;8.07;;;10.70;87.60;;;;;;5087134;28;20443;-73
2022/05/07 01:23:15;;;;;;;13.98;9.00;;;10.60;87.80;;;;;;5087976;28;20024;-73
2022/05/07 01:25:41;;;;;;;12.27;8.40;;;10.70;88.30;;;;;;5091520;28;20031;-73
2022/05/07 01:28:06;;;;;;;13.48;9.18;;;10.60;88.30;;;;;;5089306;28;20161;-73
2022/05/07 01:30:33;;;;;;;12.00;8.70;;;10.50;88.40;;;;;;5083833;28;20136;-73
2022/05/07 01:32:59;;;;;;;12.80;9.88;;;10.50;88.60;;;;;;5087167;28;20111;-73
2022/05/07 01:35:24;;;;;;;15.20;9.00;;;10.40;88.40;;;;;;5069498;28;20572;-73
2022/05/07 01:37:50;;;;;;;13.75;9.40;;;10.40;88.10;;;;;;5088385;28;20398;-73
2022/05/07 01:40:15;;;;;;;14.00;10.10;;;10.30;88.00;;;;;;5086030;28;20028;-72
2022/05/07 01:42:41;;;;;;;13.32;10.32;;;10.30;88.20;;;;;;5093272;28;20056;-72
2022/05/07 01:45:07;;;;;;;13.23;9.75;;;10.30;88.10;;;;;;5088089;28;20120;-72
2022/05/07 01:50:21;;;;;;;12.82;10.25;;;10.10;88.40;;;;;;5090971;28;20093;-71
2022/05/07 01:52:47;;;;;;;16.88;11.45;;;10.10;88.60;;;;;;5092266;28;20111;-71
2022/05/07 01:55:12;;;;;;;15.93;11.85;;;10.10;88.50;;;;;;5097804;28;20062;-72
2022/05/07 01:57:37;;;;;;;15.93;11.75;;;10.00;88.80;;;;;;5091890;28;20061;-72
2022/05/07 02:00:04;;;;;;;23.35;13.48;;;10.00;89.00;;;;;;5095771;28;20028;-72
2022/05/07 02:02:29;;;;;;;17.65;11.55;;;9.90;88.90;;;;;;5090580;28;20035;-72
2022/05/07 02:04:55;;;;;;;16.35;12.80;;;9.90;89.10;;;;;;5089021;28;20423;-72
2022/05/07 02:07:20;;;;;;;20.10;13.63;;;9.80;89.20;;;;;;5090715;28;20375;-72
2022/05/07 02:09:46;;;;;;;20.52;14.32;;;9.80;89.50;;;;;;5085875;28;20343;-72
2022/05/07 02:12:11;;;;;;;21.67;14.38;;;9.70;89.90;;;;;;5099422;28;20028;-72
2022/05/07 02:14:37;;;;;;;19.20;13.40;;;9.70;90.00;;;;;;5090891;28;20027;-72
2022/05/07 02:17:03;;;;;;;18.42;13.93;;;9.60;90.10;;;;;;5094402;28;20054;-72
2022/05/07 02:19:29;;;;;;;19.75;14.60;;;9.60;90.00;;;;;;5088253;28;21671;-72
2022/05/07 02:21:54;;;;;;;21.35;14.82;;;9.50;90.10;;;;;;5093870;28;20031;-72
2022/05/07 02:24:20;;;;;;;24.13;14.65;;;9.50;90.10;;;;;;5088468;28;20514;-72
2022/05/07 02:26:45;;;;;;;20.25;14.98;;;9.50;90.40;;;;;;5091616;28;20028;-72
2022/05/07 02:29:12;;;;;;;22.05;15.68;;;9.50;90.40;;;;;;5091049;28;20495;-72
2022/05/07 02:31:37;;;;;;;22.90;15.05;;;9.40;90.50;;;;;;5083308;28;20028;-72
2022/05/07 02:34:03;;;;;;;28.13;18.55;;;9.30;90.40;;;;;;5091849;28;20025;-72
2022/05/07 02:36:29;;;;;;;24.95;17.52;;;9.30;90.70;;;;;;5088379;28;20425;-72
2022/05/07 02:38:54;;;;;;;42.20;25.60;;;9.30;90.70;;;;;;5087781;28;21235;-72
2022/05/07 02:44:06;;;;;;;31.55;21.05;;;9.30;91.00;;;;;;5088961;28;20047;-71
2022/05/07 02:46:32;;;;;;;30.48;20.02;;;9.20;91.20;;;;;;5094811;28;20115;-72
2022/05/07 02:48:57;;;;;;;26.42;18.85;;;9.30;91.60;;;;;;5093542;28;20415;-73
2022/05/07 02:51:23;;;;;;;24.15;17.38;;;9.20;91.60;;;;;;5089568;28;20046;-73
2022/05/07 02:53:48;;;;;;;27.15;17.77;;;9.20;91.50;;;;;;5089577;28;20047;-72
2022/05/07 02:56:14;;;;;;;26.75;17.65;;;9.30;91.50;;;;;;5097802;28;20525;-72
2022/05/07 02:58:39;;;;;;;25.13;18.80;;;9.30;91.70;;;;;;5083860;28;20028;-72
2022/05/07 03:01:05;;;;;;;26.17;17.90;;;9.30;91.70;;;;;;5088504;28;20545;-72
2022/05/07 03:03:30;;;;;;;26.17;18.17;;;9.30;91.50;;;;;;5088824;28;20481;-72
2022/05/07 03:05:58;;;;;;;30.50;18.80;;;9.40;91.50;;;;;;5098573;28;20036;-72
2022/05/07 03:08:23;;;;;;;26.02;18.00;;;9.50;91.60;;;;;;5094337;28;20424;-72
2022/05/07 03:10:50;;;;;;;27.27;17.63;;;9.60;91.50;;;;;;5092309;28;20103;-71
2022/05/07 03:13:15;;;;;;;28.60;18.08;;;9.60;91.70;;;;;;5095618;28;20091;-71
2022/05/07 03:15:41;;;;;;;25.50;18.42;;;9.80;91.90;;;;;;5083073;28;20293;-71
2022/05/07 03:18:06;;;;;;;26.20;16.67;;;9.80;91.80;;;;;;5088898;28;20032;-72
2022/05/07 03:20:32;;;;;;;24.17;16.63;;;9.90;92.00;;;;;;5085061;28;20040;-72
2022/05/07 03:22:58;;;;;;;22.77;16.75;;;10.00;91.90;;;;;;5087515;28;20378;-72
2022/05/07 03:25:24;;;;;;;28.65;16.83;;;10.00;91.70;;;;;;5088274;28;20023;-72
2022/05/07 03:27:49;;;;;;;24.35;16.38;;;10.10;91.30;;;;;;5088190;28;20024;-72
2022/05/07 03:30:15;;;;;;;22.70;16.17;;;10.10;91.10;;;;;;5083364;28;20055;-72
2022/05/07 03:32:40;;;;;;;23.08;15.60;;;10.10;91.20;;;;;;5080634;28;20055;-71
2022/05/07 03:35:06;;;;;;;22.13;15.10;;;10.10;91.20;;;;;;5084436;28;20527;-71
2022/05/07 03:37:32;;;;;;;23.60;16.02;;;10.10;91.40;;;;;;5091255;28;20047;-71
2022/05/07 03:39:57;;;;;;;21.67;15.13;;;10.10;91.20;;;;;;5082231;28;20093;-70
2022/05/07 03:42:23;;;;;;;22.13;15.13;;;10.10;91.00;;;;;;5086086;28;20048;-69
2022/05/07 03:44:49;;;;;;;26.60;17.60;;;10.10;90.80;;;;;;5066448;28;20028;-69
2022/05/07 03:47:14;;;;;;;22.55;17.05;;;10.10;90.70;;;;;;5091034;28;20031;-71
2022/05/07 03:49:41;;;;;;;21.63;16.38;;;10.00;90.60;;;;;;5079959;28;20029;-69
2022/05/07 03:54:51;;;;;;;24.13;17.35;;;9.90;90.40;;;;;;5097077;28;20098;-70
2022/05/07 03:57:16;;;;;;;25.02;17.50;;;9.90;90.70;;;;;;5093480;28;20509;-70
2022/05/07 03:59:43;;;;;;;23.48;17.33;;;9.90;91.00;;;;;;5067943;28;20074;-70
2022/05/07 04:02:09;;;;;;;23.70;17.08;;;9.90;91.30;;;;;;5090701;28;20081;-69
2022/05/07 04:04:35;;;;;;;24.92;16.25;;;9.80;91.40;;;;;;5089316;28;20054;-70
2022/05/07 04:07:01;;;;;;;23.75;17.55;;;9.80;91.40;;;;;;5089908;28;20034;-70
2022/05/07 04:09:27;;;;;;;23.95;17.15;;;9.80;91.30;;;;;;5068679;28;20035;-70
2022/05/07 04:11:52;;;;;;;29.65;18.10;;;9.80;91.40;;;;;;5087337;28;20101;-71
2022/05/07 04:14:18;;;;;;;23.48;16.33;;;9.80;91.40;;;;;;5080193;28;20032;-72
2022/05/07 04:16:44;;;;;;;23.02;16.40;;;9.80;91.30;;;;;;5067479;28;20038;-70
2022/05/07 04:19:11;;;;;;;23.33;16.15;;;9.80;91.20;;;;;;5087380;28;20118;-67
2022/05/07 04:21:38;;;;;;;21.83;15.50;;;9.90;91.10;;;;;;5095288;28;20019;-67
2022/05/07 04:24:04;;;;;;;21.42;15.50;;;9.90;91.10;;;;;;5081492;28;20111;-67
2022/05/07 04:26:29;;;;;;;24.48;15.60;;;9.90;90.80;;;;;;5095544;28;20027;-68
2022/05/07 04:28:55;;;;;;;22.65;16.05;;;10.00;90.60;;;;;;5089145;28;20028;-69
2022/05/07 04:31:20;;;;;;;23.23;16.50;;;10.00;90.90;;;;;;5088281;28;20046;-69
2022/05/07 04:33:46;;;;;;;21.35;14.73;;;10.10;90.90;;;;;;5090949;28;20095;-69
2022/05/07 04:36:11;;;;;;;27.88;16.83;;;10.10;90.80;;;;;;5087008;28;20048;-70
2022/05/07 04:38:37;;;;;;;26.63;19.30;;;10.10;91.10;;;;;;5084828;28;20040;-69
2022/05/07 04:41:03;;;;;;;23.58;17.25;;;10.10;90.90;;;;;;5072673;28;20057;-67
2022/05/07 04:43:28;;;;;;;24.38;16.38;;;10.20;90.90;;;;;;5086862;28;20035;-67
2022/05/07 04:45:54;;;;;;;22.90;15.88;;;10.20;90.80;;;;;;5087044;28;20048;-69
2022/05/07 04:48:19;;;;;;;26.50;15.07;;;10.20;90.90;;;;;;5087581;28;20135;-69
2022/05/07 04:50:45;;;;;;;21.90;14.57;;;10.20;90.80;;;;;;5090453;28;20079;-69
2022/05/07 04:53:10;;;;;;;19.42;14.00;;;10.30;90.80;;;;;;5090561;28;20036;-69
2022/05/07 04:55:36;;;;;;;20.52;14.00;;;10.30;90.70;;;;;;5090210;28;20503;-69
2022/05/07 04:58:02;;;;;;;19.77;13.85;;;10.30;90.60;;;;;;5086807;28;20120;-69
2022/05/07 05:00:27;;;;;;;21.80;14.90;;;10.40;90.40;;;;;;5090155;28;20352;-69
2022/05/07 05:02:53;;;;;;;19.17;13.68;;;10.40;90.60;;;;;;5088595;28;20425;-69
2022/05/07 05:05:18;;;;;;;17.65;14.10;;;10.40;91.00;;;;;;5084209;28;20031;-69
2022/05/07 05:07:44;;;;;;;18.65;14.07;;;10.50;91.20;;;;;;5072299;28;20546;-69
2022/05/07 05:10:10;;;;;;;18.58;13.77;;;10.50;91.30;;;;;;5090077;28;20016;-69
2022/05/07 05:12:35;;;;;;;17.95;13.50;;;10.50;91.30;;;;;;5090587;28;20363;-69
2022/05/07 05:15:01;;;;;;;20.73;14.30;;;10.60;91.20;;;;;;5092666;28;20043;-69
2022/05/07 05:17:27;;;;;;;22.95;14.23;;;10.70;91.20;;;;;;5092998;28;20040;-69
2022/05/07 05:19:53;;;;;;;20.02;14.20;;;10.80;91.30;;;;;;5094059;28;20024;-69
2022/05/07 05:22:18;;;;;;;18.67;13.35;;;10.90;91.20;;;;;;5092733;28;20028;-69
2022/05/07 05:24:44;;;;;;;16.25;12.63;;;11.00;90.90;;;;;;5093691;28;20043;-69
2022/05/07 05:27:10;;;;;;;19.05;13.40;;;11.10;90.80;;;;;;5094276;28;20055;-70
2022/05/07 05:29:35;;;;;;;22.20;14.57;;;11.20;90.60;;;;;;5093913;28;20028;-69
2022/05/07 05:32:01;;;;;;;18.80;14.65;;;11.30;90.40;;;;;;5083330;28;20568;-69
2022/05/07 05:34:27;;;;;;;22.30;14.82;;;11.40;90.20;;;;;;5093090;28;20040;-69
2022/05/07 05:36:52;;;;;;;19.13;13.60;;;11.50;90.00;;;;;;5093788;28;20123;-69
2022/05/07 05:39:18;;;;;;;19.00;14.23;;;11.70;89.40;;;;;;5085384;28;20103;-69
2022/05/07 05:41:44;;;;;;;18.02;13.38;;;12.00;89.30;;;;;;5092598;28;20052;-69
2022/05/07 05:44:10;;;;;;;18.63;13.15;;;12.20;89.00;;;;;;5091186;28;20020;-69
2022/05/07 05:46:36;;;;;;;17.98;13.32;;;12.30;88.20;;;;;;5093966;28;20028;-69
2022/05/07 05:49:02;;;;;;;18.58;13.40;;;12.40;87.80;;;;;;5088432;28;20498;-69
2022/05/07 05:51:27;;;;;;;18.92;12.45;;;12.70;87.70;;;;;;5093510;28;20085;-66
2022/05/07 05:53:53;;;;;;;17.67;11.60;;;12.90;87.60;;;;;;5093397;28;20024;-67
2022/05/07 05:56:18;;;;;;;21.33;12.57;;;13.10;87.30;;;;;;5091452;28;20028;-67
2022/05/07 05:58:44;;;;;;;17.63;12.50;;;13.10;86.50;;;;;;5088348;28;20123;-68
2022/05/07 06:01:11;;;;;;;17.50;12.27;;;13.10;85.50;;;;;;5093135;28;20070;-67
2022/05/07 06:03:37;;;;;;;17.27;12.32;;;13.40;85.30;;;;;;5092840;28;20056;-67
2022/05/07 06:06:03;;;;;;;17.52;11.93;;;13.50;84.50;;;;;;5082182;28;20060;-67
2022/05/07 06:08:28;;;;;;;15.70;12.63;;;13.70;84.30;;;;;;5093514;28;20055;-71
2022/05/07 06:10:55;;;;;;;16.15;11.95;;;13.70;83.00;;;;;;5091052;28;20075;-67
2022/05/07 06:13:21;;;;;;;18.85;12.25;;;13.80;83.20;;;;;;5079594;28;20031;-67
2022/05/07 06:15:51;;;;;;;18.60;12.18;;;13.80;82.40;;;;;;5093040;28;20413;-68
2022/05/07 06:18:20;;;;;;;19.02;12.50;;;13.90;82.40;;;;;;5093302;28;20116;-67
2022/05/07 06:20:48;;;;;;;19.90;12.07;;;13.90;82.40;;;;;;5093172;28;20103;-67
2022/05/07 06:23:14;;;;;;;21.25;12.80;;;13.80;82.60;;;;;;5091765;28;20532;-67
2022/05/07 06:28:24;;;;;;;18.00;13.05;;;13.80;82.80;;;;;;5089902;28;20031;-67
2022/05/07 06:30:50;;;;;;;19.02;13.30;;;13.80;82.60;;;;;;5085987;28;20036;-67
2022/05/07 06:33:16;;;;;;;18.02;13.40;;;13.90;83.40;;;;;;5090553;28;20066;-67
2022/05/07 06:35:41;;;;;;;27.80;15.10;;;13.90;83.10;;;;;;5088908;28;20473;-68
2022/05/07 06:38:08;;;;;;;20.95;14.55;;;14.00;83.60;;;;;;5083340;28;20460;-67
2022/05/07 06:40:37;;;;;;;19.30;13.77;;;14.10;83.50;;;;;;5080058;28;20028;-67
2022/05/07 06:43:03;;;;;;;21.38;14.20;;;14.30;83.00;;;;;;5092551;28;20027;-67
2022/05/07 06:45:28;;;;;;;23.77;14.27;;;14.40;82.50;;;;;;5092485;28;20024;-67
2022/05/07 06:47:54;;;;;;;19.65;14.10;;;14.60;81.20;;;;;;5084185;28;20103;-67
2022/05/07 06:50:19;;;;;;;21.25;13.35;;;14.70;80.90;;;;;;5092829;28;20036;-67
2022/05/07 06:52:46;;;;;;;25.42;13.20;;;14.90;79.60;;;;;;5092339;28;20470;-67
2022/05/07 06:55:13;;;;;;;22.33;12.32;;;15.10;78.40;;;;;;5090963;28;20063;-67
2022/05/07 06:57:38;;;;;;;21.13;11.43;;;15.30;77.70;;;;;;5084191;28;20020;-68
2022/05/07 07:00:05;;;;;;;14.60;10.20;;;15.30;75.80;;;;;;5092371;28;20077;-68
2022/05/07 07:02:30;;;;;;;16.30;10.38;;;15.20;75.20;;;;;;5090624;28;20016;-68
2022/05/07 07:04:57;;;;;;;15.45;10.57;;;15.30;76.10;;;;;;5085958;28;20087;-70
2022/05/07 07:07:25;;;;;;;13.30;9.52;;;15.30;75.90;;;;;;5073521;28;20027;-70
2022/05/07 07:09:51;;;;;;;13.05;9.13;;;15.10;75.40;;;;;;5091791;28;20077;-69
2022/05/07 07:12:16;;;;;;;13.85;9.73;;;15.00;75.90;;;;;;5092039;28;20411;-67
2022/05/07 07:14:42;;;;;;;14.50;9.35;;;15.10;76.90;;;;;;5070148;28;20039;-67
2022/05/07 07:17:07;;;;;;;16.15;8.55;;;15.00;76.40;;;;;;5092453;28;20036;-67
2022/05/07 07:19:34;;;;;;;14.65;9.15;;;14.90;76.30;;;;;;5090530;28;20031;-68
2022/05/07 07:22:00;;;;;;;14.20;9.63;;;15.10;75.90;;;;;;5088851;28;20028;-67
2022/05/07 07:24:26;;;;;;;16.77;9.82;;;15.20;76.10;;;;;;5091532;28;20031;-67
2022/05/07 07:26:51;;;;;;;17.02;9.68;;;15.50;75.80;;;;;;5091455;28;20054;-68
2022/05/07 07:29:16;;;;;;;16.27;9.60;;;16.00;74.60;;;;;;5090855;28;20040;-68
2022/05/07 07:31:42;;;;;;;12.05;8.02;;;16.30;74.40;;;;;;5085326;28;20467;-68
2022/05/07 07:34:07;;;;;;;12.35;9.10;;;16.10;71.60;;;;;;5088216;28;20163;-68
2022/05/07 07:36:33;;;;;;;16.13;8.57;;;16.00;72.10;;;;;;5089555;28;20470;-68
2022/05/07 07:38:59;;;;;;;13.45;7.75;;;16.30;71.60;;;;;;5090219;28;20105;-68
2022/05/07 07:41:25;;;;;;;15.57;8.55;;;16.10;72.00;;;;;;5090178;28;20052;-68
2022/05/07 07:43:50;;;;;;;12.93;9.13;;;16.20;72.20;;;;;;5091609;28;20563;-68
2022/05/07 07:49:00;;;;;;;15.27;9.48;;;15.90;73.00;;;;;;5082157;28;20077;-68
2022/05/07 07:51:26;;;;;;;14.52;8.10;;;15.90;74.60;;;;;;5090894;28;20040;-68
2022/05/07 07:53:51;;;;;;;9.63;6.97;;;16.10;74.00;;;;;;5090447;28;20031;-68
2022/05/07 07:56:18;;;;;;;10.52;7.20;;;16.00;71.40;;;;;;5088260;28;20044;-68
2022/05/07 07:58:43;;;;;;;11.32;6.60;;;16.10;71.40;;;;;;5091461;28;20055;-68
2022/05/07 08:01:09;;;;;;;10.55;6.45;;;16.20;70.30;;;;;;5090923;28;20052;-68
2022/05/07 08:03:34;;;;;;;10.85;5.50;;;16.30;70.90;;;;;;5088816;28;20111;-68
2022/05/07 08:06:00;;;;;;;8.32;5.35;;;16.20;69.90;;;;;;5088510;28;20056;-68
2022/05/07 08:13:54;;;;;;;8.70;4.85;;;16.30;69.10;;;;;;5090989;28;20050;-68
2022/05/07 08:16:21;;;;;;;8.27;5.05;;;16.00;67.20;;;;;;5090662;28;20032;-68
2022/05/07 08:18:47;;;;;;;9.30;5.28;;;16.20;67.80;;;;;;5090079;28;20042;-68
2022/05/07 08:21:13;;;;;;;8.27;4.80;;;16.40;68.10;;;;;;5087051;28;20024;-68
2022/05/07 08:23:40;;;;;;;8.80;4.43;;;16.40;66.80;;;;;;5091045;28;20494;-68
2022/05/07 08:26:07;;;;;;;12.60;5.35;;;16.70;66.70;;;;;;5090505;28;20089;-68
2022/05/07 08:28:37;;;;;;;9.48;5.97;;;16.90;67.20;;;;;;5088919;28;20058;-68
2022/05/07 08:31:03;;;;;;;14.77;6.27;;;17.10;67.40;;;;;;5089442;28;20074;-68
2022/05/07 08:33:31;;;;;;;10.68;6.18;;;17.00;67.00;;;;;;5090942;28;20096;-68
2022/05/07 08:35:57;;;;;;;11.32;5.45;;;17.00;67.20;;;;;;5090899;28;20031;-68
2022/05/07 08:38:22;;;;;;;8.80;3.95;;;17.30;66.20;;;;;;5085701;28;20025;-69
2022/05/07 08:40:48;;;;;;;8.68;5.28;;;17.10;64.40;;;;;;5085984;28;20055;-70
2022/05/07 08:43:15;;;;;;;8.15;4.90;;;17.20;65.80;;;;;;5090479;28;20032;-68
2022/05/07 08:45:41;;;;;;;10.10;4.05;;;17.50;65.00;;;;;;5086175;28;20031;-68
2022/05/07 08:48:10;;;;;;;8.73;3.58;;;17.70;62.60;;;;;;5091541;28;20032;-68
2022/05/07 08:50:37;;;;;;;6.53;3.65;;;17.80;61.30;;;;;;5094932;28;20152;-68
2022/05/07 08:53:02;;;;;;;8.73;3.95;;;18.40;62.10;;;;;;5094724;28;20023;-68
2022/05/07 08:55:28;;;;;;;8.27;4.25;;;18.30;60.90;;;;;;5092517;28;20032;-68
2022/05/07 08:57:54;;;;;;;7.40;3.80;;;18.10;60.50;;;;;;5094621;28;20028;-68
2022/05/07 09:00:25;;;;;;;7.57;3.60;;;18.50;60.20;;;;;;5093318;28;20040;-68
2022/05/07 09:02:58;;;;;;;6.65;3.45;;;18.50;59.20;;;;;;5085028;28;20032;-70
2022/05/07 09:05:35;;;;;;;6.45;3.13;;;18.30;60.80;;;;;;5093603;28;20024;-68
2022/05/07 09:08:01;;;;;;;7.30;3.70;;;18.00;61.00;;;;;;5094480;28;20040;-68
2022/05/07 09:10:29;;;;;;;6.28;2.85;;;17.80;61.30;;;;;;5093783;28;20434;-68
2022/05/07 09:13:00;;;;;;;5.43;3.17;;;18.00;59.80;;;;;;5083491;28;20021;-68
2022/05/07 09:15:26;;;;;;;6.88;3.42;;;18.30;60.70;;;;;;5091244;28;20032;-68
2022/05/07 09:17:51;;;;;;;5.53;3.28;;;18.60;59.40;;;;;;5094129;28;20070;-68
2022/05/07 09:20:18;;;;;;;6.55;3.45;;;18.70;58.30;;;;;;5093382;28;20498;-68
2022/05/07 09:22:49;;;;;;;11.30;3.67;;;18.60;58.00;;;;;;5093635;28;20036;-70
2022/05/07 09:25:27;;;;;;;7.35;3.83;;;18.40;59.40;;;;;;5094763;28;20366;-68
2022/05/07 09:27:58;;;;;;;10.18;4.40;;;18.60;60.20;;;;;;5095917;28;20112;-68
2022/05/07 09:30:25;;;;;;;7.70;4.00;;;18.50;60.50;;;;;;5091626;28;20044;-68
2022/05/07 09:32:53;;;;;;;8.60;3.95;;;18.70;58.50;;;;;;5093742;28;20059;-68
2022/05/07 09:38:08;;;;;;;11.05;4.07;;;19.40;58.00;;;;;;5082883;28;20424;-69
2022/05/07 09:40:41;;;;;;;7.75;4.28;;;20.00;56.60;;;;;;5093366;28;20032;-69
2022/05/07 09:43:11;;;;;;;7.78;3.83;;;19.70;56.90;;;;;;5073735;28;20051;-68
2022/05/07 09:45:38;;;;;;;5.68;3.15;;;20.10;56.40;;;;;;5090895;28;20043;-69
2022/05/07 09:48:05;;;;;;;8.15;3.47;;;20.30;57.90;;;;;;5090923;28;20044;-69
2022/05/07 09:58:37;;;;;;;9.88;4.30;;;20.10;55.70;;;;;;5091099;28;20535;-69
2022/05/07 10:01:21;;;;;;;7.28;4.00;;;20.20;55.20;;;;;;5092667;28;20052;-69
2022/05/07 10:03:55;;;;;;;6.25;3.65;;;20.40;55.10;;;;;;5082183;28;20430;-69
2022/05/07 10:06:42;;;;;;;8.65;3.58;;;20.00;56.00;;;;;;5078795;28;20577;-69
2022/05/07 10:09:25;;;;;;;5.85;3.42;;;20.00;54.90;;;;;;5092216;28;20035;-69
2022/05/07 10:11:56;;;;;;;5.93;2.78;;;19.70;55.20;;;;;;5082930;28;20047;-69
2022/05/07 10:14:26;;;;;;;8.85;3.00;;;20.20;54.10;;;;;;5092000;28;20028;-69
2022/05/07 10:17:19;;;;;;;7.00;2.72;;;20.00;53.70;;;;;;5091850;28;20036;-69
2022/05/07 10:19:46;;;;;;;6.32;1.88;;;20.00;53.60;;;;;;5091124;28;20356;-69
2022/05/07 10:22:23;;;;;;;4.97;2.22;;;20.40;51.80;;;;;;5080025;28;20459;-69
2022/05/07 10:25:10;;;;;;;8.25;3.10;;;20.50;50.70;;;;;;5091789;28;20048;-69
2022/05/07 10:27:43;;;;;;;4.78;2.47;;;20.50;50.90;;;;;;5083369;28;20625;-69
2022/05/07 10:30:13;;;;;;;3.78;2.33;;;21.20;50.50;;;;;;5089300;28;20115;-69
2022/05/07 10:33:01;;;;;;;4.93;2.35;;;20.50;51.80;;;;;;5091797;28;20036;-69
2022/05/07 10:35:41;;;;;;;5.78;2.75;;;20.40;53.20;;;;;;5091867;28;20062;-69
2022/05/07 10:38:35;;;;;;;5.18;2.35;;;21.30;52.30;;;;;;5090252;28;20492;-69
2022/05/07 10:41:05;;;;;;;5.10;2.50;;;21.60;50.80;;;;;;5052712;28;1017659;-69
2022/05/07 10:43:35;;;;;;;5.60;2.25;;;21.70;49.70;;;;;;5092791;28;20055;-69
2022/05/07 10:46:03;;;;;;;4.97;2.35;;;21.50;50.30;;;;;;5081876;28;20036;-69
2022/05/07 10:48:29;;;;;;;3.90;1.90;;;20.60;51.30;;;;;;5092422;28;20035;-69
2022/05/07 10:51:00;;;;;;;6.03;2.22;;;20.70;50.70;;;;;;5092221;28;20521;-69
2022/05/07 10:53:36;;;;;;;5.28;2.15;;;20.30;50.70;;;;;;5092704;28;20031;-69
2022/05/07 10:56:01;;;;;;;5.47;1.90;;;20.50;51.30;;;;;;5089854;28;20557;-69
2022/05/07 10:58:29;;;;;;;5.57;2.28;;;20.40;51.20;;;;;;5092629;28;20020;-69
2022/05/07 11:00:57;;;;;;;5.35;2.10;;;20.50;51.50;;;;;;5091428;28;20197;-70
2022/05/07 11:03:28;;;;;;;4.60;2.25;;;20.30;52.20;;;;;;5089148;28;20024;-70
2022/05/07 11:06:02;;;;;;;3.63;2.08;;;20.10;53.50;;;;;;5074064;28;20031;-68
2022/05/07 11:08:30;;;;;;;5.03;2.40;;;19.50;53.60;;;;;;5091836;28;20085;-68
2022/05/07 11:11:07;;;;;;;5.10;2.20;;;19.60;54.30;;;;;;5090520;28;20038;-68
2022/05/07 11:13:57;;;;;;;5.25;1.92;;;20.10;53.40;;;;;;5083467;28;20027;-67
2022/05/07 11:16:23;;;;;;;5.88;2.15;;;19.70;53.50;;;;;;5091336;28;20041;-68
2022/05/07 11:18:51;;;;;;;6.47;2.60;;;19.40;53.70;;;;;;5090999;28;20044;-69
2022/05/07 11:21:21;;;;;;;9.95;3.08;;;19.50;53.90;;;;;;5091893;28;20160;-70
2022/05/07 11:23:53;;;;;;;3.95;2.45;;;20.00;55.20;;;;;;5090215;28;20074;-70
2022/05/07 11:26:20;;;;;;;6.50;2.50;;;20.60;52.50;;;;;;5091786;28;20031;-70
2022/05/07 11:28:46;;;;;;;5.47;2.65;;;20.50;52.20;;;;;;5090966;28;20020;-70
2022/05/07 11:31:33;;;;;;;5.35;2.70;;;20.40;53.00;;;;;;5091855;28;20489;-68
2022/05/07 11:34:06;;;;;;;6.10;2.75;;;20.20;51.40;;;;;;5091758;28;20035;-68
2022/05/07 11:36:32;;;;;;;6.82;3.35;;;20.70;51.20;;;;;;5070159;28;20030;-68
2022/05/07 11:38:59;;;;;;;7.88;2.40;;;21.00;51.80;;;;;;5090605;28;20278;-68
2022/05/07 11:41:25;;;;;;;6.90;2.67;;;21.10;51.50;;;;;;5090904;28;20044;-68
2022/05/07 11:46:48;;;;;;;5.45;2.72;;;22.20;48.60;;;;;;5081418;28;20035;-68
2022/05/07 11:49:13;;;;;;;7.35;3.10;;;22.40;49.20;;;;;;5085883;28;20035;-68
2022/05/07 11:51:39;;;;;;;8.35;2.92;;;22.60;47.90;;;;;;5091312;28;20383;-68
2022/05/07 11:54:09;;;;;;;5.80;2.72;;;22.90;47.70;;;;;;5085939;28;20049;-68
2022/05/07 11:56:45;;;;;;;5.43;2.45;;;22.20;47.10;;;;;;5091245;28;20028;-68
2022/05/07 11:59:11;;;;;;;6.47;3.03;;;22.00;47.90;;;;;;5091061;28;20107;-68
2022/05/07 12:01:36;;;;;;;6.60;3.05;;;21.50;50.00;;;;;;5090772;28;20120;-68
2022/05/07 12:04:09;;;;;;;5.25;2.72;;;21.70;49.00;;;;;;5070470;28;20028;-68
2022/05/07 12:06:35;;;;;;;6.22;3.28;;;21.10;50.50;;;;;;5090263;28;20353;-68
2022/05/07 12:09:15;;;;;;;6.35;3.10;;;22.00;48.20;;;;;;5070393;28;20024;-68
2022/05/07 12:11:43;;;;;;;7.90;3.33;;;22.00;48.60;;;;;;5092658;28;20036;-68
2022/05/07 12:14:09;;;;;;;7.70;2.95;;;22.40;50.30;;;;;;5091458;28;20028;-68
2022/05/07 12:19:30;;;;;;;11.02;3.70;;;23.10;46.20;;;;;;5090058;28;20504;-69
2022/05/07 12:30:09;;;;;;;7.10;3.28;;;22.60;47.20;;;;;;5089654;28;20387;-69
2022/05/07 12:32:34;;;;;;;5.93;2.90;;;21.90;49.60;;;;;;5090334;28;20043;-68
2022/05/07 12:35:00;;;;;;;5.80;3.38;;;22.50;49.30;;;;;;5090772;28;20479;-68
2022/05/07 12:37:26;;;;;;;6.75;3.72;;;22.90;47.00;;;;;;5080399;28;20042;-69
2022/05/07 12:39:51;;;;;;;6.75;3.33;;;23.30;45.70;;;;;;5090667;28;20032;-69
2022/05/07 12:42:17;;;;;;;7.28;4.65;;;22.70;46.30;;;;;;5090098;28;20089;-69
2022/05/07 12:44:44;;;;;;;6.60;4.18;;;21.80;49.00;;;;;;5085418;28;20028;-69
2022/05/07 12:47:10;;;;;;;9.23;3.83;;;21.50;50.10;;;;;;5090156;28;20032;-69
2022/05/07 12:49:36;;;;;;;8.10;3.85;;;21.50;50.00;;;;;;5090423;28;20021;-69
2022/05/07 12:52:07;;;;;;;6.43;3.95;;;21.70;50.50;;;;;;5087957;28;20051;-69
2022/05/07 12:54:33;;;;;;;8.88;4.22;;;21.80;50.00;;;;;;5088800;28;20240;-69
2022/05/07 12:56:58;;;;;;;9.68;4.60;;;21.20;50.50;;;;;;5098078;28;20112;-68
2022/05/07 12:59:24;;;;;;;6.60;3.80;;;21.50;50.30;;;;;;5091058;28;20103;-69
2022/05/07 13:01:50;;;;;;;8.57;4.05;;;21.60;50.50;;;;;;5080029;28;20028;-69
2022/05/07 13:04:15;;;;;;;8.88;4.15;;;22.00;49.50;;;;;;5089418;28;20529;-69
2022/05/07 13:06:41;;;;;;;7.68;4.40;;;22.70;49.20;;;;;;5086923;28;20028;-69
2022/05/07 13:09:07;;;;;;;9.45;4.03;;;22.00;49.00;;;;;;5092012;28;20028;-69
2022/05/07 13:11:33;;;;;;;10.15;4.28;;;21.80;50.30;;;;;;5090308;28;20360;-68
2022/05/07 13:13:58;;;;;;;7.60;4.78;;;22.00;52.20;;;;;;5090338;28;20032;-68
2022/05/07 13:16:24;;;;;;;7.55;3.60;;;21.10;50.70;;;;;;5090343;28;20463;-68
2022/05/07 13:18:50;;;;;;;7.72;4.20;;;21.00;52.50;;;;;;5080391;28;20020;-68
2022/05/07 13:21:15;;;;;;;9.60;4.47;;;20.30;53.30;;;;;;5088576;28;20054;-68
2022/05/07 13:23:41;;;;;;;8.52;3.70;;;20.70;55.00;;;;;;5090270;28;20028;-68
2022/05/07 13:26:07;;;;;;;13.88;4.60;;;21.60;54.90;;;;;;5089782;28;20048;-68
2022/05/07 13:28:33;;;;;;;10.60;4.88;;;21.80;54.70;;;;;;5089183;28;20379;-68